Date,TemperatureHighF,TemperatureAvgF,TemperatureLowF,DewpointHighF,DewpointAvgF,DewpointLowF,HumidityHigh,HumidityAvg,HumidityLow,PressureMaxIn,PressureMinIn,WindSpeedMaxMPH,WindSpeedAvgMPH,GustSpeedMaxMPH,PrecipitationSumIn
2014-1-1,47.0,42.1,36.0,35.1,32.5,27.2,73,68,60,30.42,30.18,3,0,5,0.00
2014-1-2,47.0,41.4,37.0,34.3,30.6,27.1,74,65,53,30.29,29.99,5,2,13,0.20
2014-1-3,44.0,36.8,31.0,35.2,27.8,21.3,76,70,60,30.34,30.12,5,1,12,0.01
2014-1-4,38.0,31.4,26.0,26.9,22.2,16.9,76,69,56,30.51,30.33,6,1,10,0.01
2014-1-5,38.0,30.1,26.0,25.0,20.9,16.9,75,69,56,30.53,30.32,2,0,5,0.01
2014-1-6,39.0,32.7,25.0,27.9,21.9,15.6,73,65,46,30.34,30.16,4,0,8,0.05
2014-1-7,43.0,39.3,36.0,35.3,30.9,26.5,74,72,67,30.26,30.09,4,1,10,0.35
2014-1-8,49.0,43.5,41.0,40.7,35.4,32.6,75,73,69,30.14,29.90,3,1,11,0.47
2014-1-9,45.0,42.4,38.0,36.3,33.9,29.4,74,72,67,30.16,29.96,5,1,10,0.16
2014-1-10,50.0,45.3,42.0,40.0,36.6,34.0,75,72,66,30.23,29.76,6,1,17,0.29
2014-1-11,48.0,42.7,36.0,39.4,33.4,27.2,74,69,63,30.05,29.59,7,3,23,0.95
2014-1-12,44.0,40.6,38.0,36.6,32.6,26.3,76,73,60,30.44,30.04,5,1,14,0.88
2014-1-13,46.0,43.0,41.0,37.5,34.7,33.0,75,72,66,30.63,30.42,6,0,11,0.04
2014-1-14,45.0,41.1,37.0,36.3,32.9,28.8,77,72,65,30.64,30.46,2,0,6,0.00
2014-1-15,43.0,38.3,33.0,33.4,29.1,25.2,75,70,58,30.56,30.39,6,2,10,0.00
2014-1-16,43.0,37.4,34.0,31.7,28.2,23.5,75,69,58,30.47,30.16,5,1,9,0.00
2014-1-17,41.0,35.0,31.0,29.8,25.5,22.0,73,68,58,30.34,30.17,5,1,10,0.00
2014-1-18,42.0,33.4,27.0,27.4,23.7,18.2,75,68,51,30.30,30.01,4,1,9,0.01
2014-1-19,42.0,34.4,29.0,27.1,24.4,20.4,75,67,50,30.31,30.22,6,1,11,0.00
2014-1-20,41.0,34.5,28.0,27.1,23.9,18.5,71,65,52,30.33,30.11,4,1,9,0.00
2014-1-21,43.0,33.7,26.0,26.1,20.9,16.2,69,60,42,30.35,30.15,5,1,13,0.00
2014-1-22,43.0,36.8,33.0,31.3,25.8,21.0,74,64,54,30.42,30.21,5,1,12,0.01
2014-1-23,45.0,37.2,29.0,29.8,25.8,19.4,74,64,41,30.44,30.22,5,1,10,0.00
2014-1-24,44.0,32.5,27.0,26.1,21.5,15.1,74,64,48,30.41,30.03,3,0,9,0.00
2014-1-25,43.0,31.4,24.0,21.0,16.6,13.7,69,55,34,30.41,30.21,5,1,10,0.00
2014-1-26,43.0,31.2,24.0,23.3,17.4,13.1,73,57,40,30.29,30.10,5,1,10,0.00
2014-1-27,38.0,32.5,26.0,21.4,17.1,12.8,62,53,41,30.27,30.14,5,2,9,0.01
2014-1-28,46.0,37.2,33.0,29.8,24.4,19.8,72,60,47,30.29,30.00,6,2,11,0.55
2014-1-29,49.0,40.3,36.0,40.0,31.8,27.9,76,71,61,30.00,29.75,6,1,22,0.38
2014-1-30,46.0,39.2,35.0,34.6,29.8,25.2,74,69,50,30.03,29.94,5,0,11,0.36
2014-1-31,44.0,38.5,35.0,34.1,30.1,26.2,77,71,66,30.21,30.00,4,0,10,0.10
2014-2-1,45.0,36.5,28.0,33.9,27.3,19.1,76,69,54,30.23,30.02,3,0,9,0.10
2014-2-2,40.0,33.4,28.0,27.7,23.8,19.8,76,68,51,30.09,29.93,4,1,7,0.09
2014-2-3,39.0,30.8,23.0,25.3,16.8,1.8,75,58,24,30.20,30.01,5,0,10,0.01
2014-2-4,36.0,27.4,20.0,21.3,12.4,0.6,71,54,32,30.38,30.15,7,1,12,0.00
2014-2-5,30.0,22.4,15.0,5.3,-7.8,-25.2,57,29,8,30.44,30.17,8,2,22,0.00
2014-2-6,29.0,21.5,16.0,12.9,3.1,-15.4,62,46,21,30.27,29.76,5,1,15,0.00
2014-2-7,30.0,23.8,15.0,19.1,10.6,0.1,70,57,36,30.02,29.68,0,0,1,0.00
2014-2-8,35.0,28.3,25.0,21.4,17.0,12.8,73,63,41,30.05,29.84,0,0,1,0.04
2014-2-9,40.0,31.4,27.0,22.0,20.1,17.2,71,63,46,30.16,30.03,5,1,10,0.56
2014-2-10,42.0,33.5,29.0,28.3,23.5,18.3,78,67,54,30.19,30.08,6,1,12,0.82
2014-2-11,41.0,39.0,35.0,34.0,32.0,28.8,79,76,70,30.19,29.76,5,1,16,1.21
2014-2-12,49.0,44.3,39.0,37.8,34.3,29.8,78,68,50,30.01,29.73,6,1,19,0.11
2014-2-13,51.0,41.1,33.0,36.1,30.1,24.3,76,65,48,30.21,29.85,5,1,13,0.11
2014-2-14,50.0,41.4,31.0,38.2,31.8,22.4,76,69,53,30.04,29.78,5,1,15,0.31
2014-2-15,47.0,38.3,32.0,39.5,30.8,24.0,77,74,66,29.96,29.43,7,1,23,0.65
2014-2-16,46.0,38.9,32.0,33.7,29.4,24.0,75,69,58,30.08,29.81,5,2,18,0.19
2014-2-17,46.0,39.0,33.0,36.2,30.4,23.9,77,71,59,30.02,29.77,6,1,15,1.55
2014-2-18,45.0,38.4,32.0,37.9,30.4,23.7,77,73,60,30.02,29.73,8,2,21,1.18
2014-2-19,46.0,37.1,32.0,32.4,28.4,24.1,77,71,47,30.20,29.94,6,1,15,0.38
2014-2-20,43.0,39.2,35.0,34.6,31.0,26.6,76,72,64,30.28,30.08,4,1,10,0.24
2014-2-21,44.0,37.2,28.0,34.6,25.6,18.8,76,63,44,30.32,30.19,5,1,15,0.09
2014-2-22,45.0,35.2,26.0,27.5,22.3,16.9,74,60,38,30.24,30.04,3,0,5,0.16
2014-2-23,47.0,42.1,35.0,30.7,28.2,24.4,70,58,48,30.09,29.95,4,1,12,0.00
2014-2-24,48.0,43.8,40.0,37.9,34.7,31.0,73,70,67,30.10,29.98,4,1,7,0.20
2014-2-25,51.0,41.7,33.0,34.5,28.3,20.0,74,60,36,30.11,29.95,6,1,12,0.01
2014-2-26,52.0,39.3,29.0,28.2,21.0,14.5,74,51,23,30.01,29.72,5,1,12,0.00
2014-2-27,50.0,40.2,32.0,30.9,27.2,21.2,72,60,43,29.83,29.69,4,1,10,0.00
2014-2-28,57.0,44.3,36.0,32.9,28.4,23.1,72,55,28,29.82,29.47,6,1,14,0.00
2014-3-1,47.0,38.8,31.0,30.1,24.3,20.3,73,57,38,29.81,29.58,7,2,17,0.00
2014-3-2,44.0,39.5,34.0,34.9,29.2,22.4,74,66,56,29.89,29.63,6,2,17,0.24
2014-3-3,56.0,46.1,42.0,43.6,35.6,30.1,75,67,43,30.00,29.73,5,1,17,0.40
2014-3-4,54.0,46.6,42.0,39.1,35.7,32.6,73,66,52,30.03,29.79,6,1,16,0.01
2014-3-5,52.0,48.4,45.0,45.0,40.7,36.9,77,75,72,29.80,29.45,6,1,17,0.94
2014-3-6,52.0,45.4,40.0,41.9,36.4,32.1,75,71,61,30.09,29.57,6,2,20,0.05
2014-3-7,55.0,44.7,35.0,40.6,32.3,25.5,77,63,34,30.25,30.07,6,1,14,0.17
2014-3-8,47.0,41.9,34.0,40.5,34.2,25.2,78,74,69,30.11,29.75,6,2,18,1.87
2014-3-9,57.0,48.3,44.0,44.4,39.1,34.9,79,71,55,30.02,29.87,3,0,10,0.22
2014-3-10,48.0,42.2,34.0,36.0,32.4,25.2,79,68,55,30.42,29.93,7,1,18,0.34
2014-3-11,51.0,39.2,29.0,32.6,25.9,20.4,78,61,32,30.54,30.35,5,1,10,0.00
2014-3-12,56.0,40.5,29.0,31.4,19.0,-24.0,76,51,3,30.38,30.09,3,0,10,0.01
2014-3-13,54.0,41.1,30.0,34.1,26.5,14.3,75,58,22,30.19,30.03,4,0,10,0.03
2014-3-14,52.0,45.7,39.0,38.2,32.3,25.0,75,61,36,30.33,29.99,7,2,18,0.40
2014-3-15,60.0,47.2,36.0,36.4,31.7,26.6,73,57,32,30.30,30.16,9,1,16,0.02
2014-3-16,50.0,43.9,36.0,40.6,35.0,27.2,74,71,65,30.23,30.01,6,1,11,1.13
2014-3-17,44.0,38.4,34.0,30.5,24.9,15.8,74,59,37,30.36,30.05,9,2,18,0.03
2014-3-18,53.0,43.2,37.0,34.3,29.2,23.2,71,59,33,30.36,30.16,5,1,10,0.00
2014-3-19,51.0,40.8,32.0,36.2,28.9,17.9,75,63,39,30.26,30.08,7,1,21,0.11
2014-3-20,51.0,36.5,29.0,31.1,22.9,15.8,76,59,27,30.35,30.24,8,1,21,0.01
2014-3-21,48.0,35.8,26.0,25.6,12.4,-17.1,75,45,6,30.35,30.19,8,2,17,0.00
2014-3-22,54.0,37.7,25.0,23.7,4.8,-47.4,68,39,1,30.33,30.21,5,1,12,0.00
2014-3-23,54.0,42.1,33.0,28.4,19.7,3.3,66,44,14,30.34,30.19,6,1,10,0.00
2014-3-24,62.0,45.0,30.0,26.9,16.3,-22.0,71,40,3,30.24,29.92,5,1,14,0.00
2014-3-25,56.0,46.3,40.0,40.2,30.7,19.6,67,55,35,29.94,29.63,5,2,22,0.18
2014-3-26,48.0,43.5,40.0,37.6,33.8,30.5,73,68,62,29.72,29.59,4,1,14,0.48
2014-3-27,74.0,50.4,41.0,55.5,37.5,32.3,72,62,40,29.93,29.63,7,1,18,0.23
2014-3-28,57.0,49.9,46.0,46.2,40.2,37.1,73,69,62,29.92,29.75,6,1,17,0.73
2014-3-29,58.0,48.7,42.0,47.7,38.7,30.9,74,68,54,29.91,29.74,7,1,23,1.00
2014-3-30,49.0,40.4,32.0,36.8,29.9,20.3,74,66,40,30.04,29.87,5,1,13,0.30
2014-3-31,59.0,43.5,31.0,34.7,26.5,10.4,76,55,16,30.00,29.70,6,0,26,0.06
2014-4-1,48.0,42.3,37.0,35.9,31.6,26.3,75,66,56,29.98,29.75,4,1,13,0.26
2014-4-2,69.0,45.7,35.0,46.8,29.2,20.6,75,55,24,30.06,29.95,5,1,12,0.00
2014-4-3,57.0,45.5,36.0,38.1,31.6,25.0,74,59,36,30.03,29.90,6,1,18,0.02
2014-4-4,63.0,47.4,39.0,44.4,35.0,29.3,73,63,44,30.01,29.93,5,0,10,0.12
2014-4-5,57.0,49.8,44.0,45.8,39.9,34.9,73,69,59,30.17,29.98,4,1,12,0.47
2014-4-6,75.0,55.7,48.0,58.8,44.2,39.8,75,66,50,30.28,30.14,5,1,10,0.03
2014-4-7,74.0,57.6,47.0,46.6,40.3,20.1,73,56,13,30.23,30.04,7,2,15,0.00
2014-4-8,67.0,53.9,45.0,44.4,39.8,35.1,71,60,33,30.20,30.09,5,1,14,0.02
2014-4-9,59.0,48.6,41.0,37.9,29.3,13.1,73,50,18,30.27,30.13,7,1,14,0.00
2014-4-10,60.0,46.2,34.0,31.3,26.6,11.4,72,50,15,30.26,30.08,6,2,12,0.00
2014-4-11,64.0,46.6,35.0,33.9,29.4,23.8,74,54,23,30.17,30.00,6,2,17,0.00
2014-4-12,58.0,48.9,39.0,32.8,17.7,-32.2,68,38,2,30.15,30.03,9,2,21,0.00
2014-4-13,64.0,49.9,35.0,34.1,5.0,-41.8,71,34,1,30.27,30.10,4,1,8,0.00
2014-4-14,61.0,47.6,35.0,32.9,22.1,-28.9,70,42,2,30.23,30.06,7,2,20,0.00
2014-4-15,59.0,49.8,44.0,34.7,26.6,12.6,62,42,17,30.26,30.13,6,2,14,0.00
2014-4-16,55.0,49.7,46.0,40.9,38.0,33.3,70,64,56,30.16,29.99,3,0,10,0.13
2014-4-17,56.0,50.1,43.0,45.6,40.0,32.4,73,68,61,30.03,29.83,6,1,14,0.67
2014-4-18,57.0,47.7,40.0,37.5,25.5,-19.2,75,49,4,30.16,29.90,4,1,9,0.01
2014-4-19,58.0,46.2,38.0,44.1,34.7,27.9,74,65,46,30.22,29.84,8,1,17,0.32
2014-4-20,64.0,49.6,36.0,41.3,30.4,13.8,76,52,15,30.29,30.12,5,1,14,0.01
2014-4-21,66.0,49.9,42.0,39.1,32.7,13.7,73,56,13,30.15,29.88,5,1,14,0.32
2014-4-22,55.0,46.8,40.0,39.9,34.7,27.8,75,63,42,29.99,29.88,7,1,14,0.28
2014-4-23,55.0,48.7,42.0,44.3,39.4,33.3,74,70,65,29.98,29.74,4,1,12,0.99
2014-4-24,58.0,50.3,43.0,44.2,35.7,18.0,74,59,24,29.95,29.71,8,2,19,0.52
2014-4-25,56.0,46.5,38.0,36.8,29.7,14.6,73,54,20,29.95,29.88,6,1,15,0.01
2014-4-26,59.0,46.2,36.0,36.8,30.7,23.3,74,57,26,29.94,29.74,6,1,16,0.23
2014-4-27,55.0,45.8,39.0,40.5,33.1,22.0,76,62,33,30.19,29.74,6,1,15,0.26
2014-4-28,61.0,49.2,36.0,40.0,24.3,-5.8,75,46,7,30.35,30.17,4,1,11,0.03
2014-4-29,69.0,55.1,43.0,38.1,8.2,-40.6,72,33,1,30.45,30.26,4,1,13,0.00
2014-4-30,77.0,57.9,41.0,36.8,3.2,-40.0,69,29,1,30.32,30.08,8,1,16,0.00
2014-5-1,79.0,60.7,45.0,38.4,7.3,-37.6,69,28,1,30.11,29.97,5,1,15,0.00
2014-5-2,63.0,52.4,45.0,42.2,36.1,29.9,71,55,33,30.10,29.92,7,2,18,0.01
2014-5-3,58.0,49.3,42.0,39.6,35.5,32.3,74,60,41,29.97,29.77,4,1,13,0.28
2014-5-4,59.0,49.4,45.0,44.1,36.2,28.7,73,61,36,29.92,29.78,5,1,12,0.17
2014-5-5,60.0,49.6,43.0,40.5,35.1,27.7,75,58,34,30.08,29.92,6,1,15,0.08
2014-5-6,55.0,48.4,41.0,37.1,21.6,-20.6,71,42,4,30.09,30.01,7,2,18,0.00
2014-5-7,60.0,47.6,36.0,33.4,23.8,2.5,73,45,10,30.08,29.94,4,1,11,0.00
2014-5-8,56.0,48.7,44.0,45.6,38.0,30.3,73,66,56,29.95,29.71,5,1,12,0.46
2014-5-9,61.0,50.1,42.0,47.5,39.4,31.8,75,67,46,30.05,29.85,5,0,12,0.64
2014-5-10,63.0,49.7,42.0,39.6,33.2,25.9,75,55,31,30.28,30.03,6,1,15,0.03
2014-5-11,65.0,52.5,37.0,38.1,28.1,8.4,73,45,11,30.34,30.22,5,1,10,0.00
2014-5-12,73.0,57.9,42.0,39.7,8.7,-38.2,71,34,1,30.35,30.20,5,1,10,0.00
2014-5-13,78.0,62.3,47.0,39.4,2.8,-37.6,72,27,1,30.33,30.21,5,1,12,0.00
2014-5-14,82.0,65.4,48.0,39.3,7.9,-34.5,65,25,1,30.30,30.06,6,2,14,0.00
2014-5-15,82.0,63.1,51.0,43.2,30.7,-16.5,65,36,2,30.09,29.99,4,1,12,0.00
2014-5-16,60.0,54.0,50.0,38.6,31.2,26.6,60,43,30,30.12,30.06,4,1,12,0.00
2014-5-17,67.0,54.9,48.0,40.3,30.7,19.9,65,43,17,30.12,29.90,4,1,11,0.00
2014-5-18,61.0,54.1,49.0,47.0,40.8,31.6,71,61,42,29.97,29.86,4,1,10,0.16
2014-5-19,69.0,56.7,49.0,45.9,33.1,-9.1,74,48,5,30.07,29.94,6,2,14,0.02
2014-5-20,66.0,53.7,42.0,38.6,33.5,28.3,72,49,27,30.18,30.05,7,2,22,0.00
2014-5-21,62.0,52.8,43.0,36.6,30.9,20.6,66,45,24,30.20,30.09,6,2,17,0.00
2014-5-22,72.0,57.5,45.0,38.7,34.1,21.8,70,45,15,30.15,29.96,5,2,13,0.00
2014-5-23,65.0,55.2,49.0,47.5,41.9,35.7,69,61,47,30.18,30.00,4,1,10,0.05
2014-5-24,64.0,54.1,46.0,40.5,34.0,20.5,71,49,20,30.20,30.11,4,1,8,0.00
2014-5-25,66.0,51.5,43.0,42.7,37.1,32.1,73,60,29,30.15,29.98,4,0,9,0.30
2014-5-26,62.0,54.5,47.0,44.2,33.8,14.2,75,50,17,30.20,29.99,5,2,19,0.10
2014-5-27,66.0,51.8,42.0,38.5,27.8,8.0,72,44,12,30.22,30.12,6,1,15,0.00
2014-5-28,60.0,50.3,43.0,38.1,32.2,21.2,72,52,23,30.22,30.12,6,2,17,0.01
2014-5-29,62.0,52.0,45.0,41.9,32.6,14.2,72,51,17,30.26,30.13,6,1,12,0.06
2014-5-30,66.0,52.6,40.0,36.5,25.7,-8.4,73,43,5,30.17,29.96,8,3,18,0.00
2014-5-31,63.0,53.2,43.0,39.3,33.7,28.5,71,50,28,30.15,30.04,7,2,17,0.00
2014-6-1,64.0,54.7,47.0,37.2,32.1,25.9,62,44,26,30.15,29.95,6,2,14,0.00
2014-6-2,59.0,52.2,46.0,40.5,35.7,29.8,68,54,41,30.02,29.90,7,2,19,0.00
2014-6-3,65.0,53.7,45.0,38.9,33.2,25.1,67,48,26,30.13,29.96,5,1,14,0.00
2014-6-4,63.0,52.3,45.0,38.4,31.8,21.2,68,48,22,30.17,30.05,6,2,15,0.00
2014-6-5,63.0,51.4,40.0,33.9,26.9,9.8,68,43,14,30.22,30.03,6,2,14,0.00
2014-6-6,66.0,52.7,39.0,35.3,27.1,5.5,68,42,10,30.19,30.07,6,2,17,0.00
2014-6-7,67.0,57.0,48.0,42.2,37.4,32.8,66,50,29,30.21,30.08,7,2,18,0.00
2014-6-8,69.0,59.3,52.0,41.9,39.4,35.3,64,49,32,30.23,30.08,5,2,14,0.00
2014-6-9,69.0,58.3,50.0,42.0,33.4,16.9,67,43,16,30.17,30.05,5,2,15,0.00
2014-6-10,67.0,55.7,45.0,39.0,31.6,20.9,70,43,19,30.19,30.04,6,2,20,0.00
2014-6-11,73.0,58.4,47.0,43.3,33.8,-12.5,69,46,3,30.12,29.83,6,2,12,0.00
2014-6-12,68.0,57.4,53.0,48.7,42.1,34.9,70,57,35,29.95,29.87,4,1,11,0.78
2014-6-13,64.0,57.1,53.0,48.4,41.8,31.0,74,58,31,30.19,29.93,5,1,12,0.07
2014-6-14,63.0,56.3,51.0,44.5,37.5,29.1,70,51,29,30.17,30.02,5,1,15,0.00
2014-6-15,63.0,55.5,47.0,48.2,36.0,20.8,71,51,21,30.03,29.88,6,1,16,0.14
2014-6-16,61.0,52.6,45.0,41.9,34.6,28.4,73,52,31,30.04,29.90,6,2,22,0.01
2014-6-17,62.0,52.0,42.0,46.1,37.0,31.8,74,58,41,30.19,30.03,5,1,15,0.01
2014-6-18,65.0,56.0,46.0,43.6,30.3,10.4,72,43,12,30.19,30.01,5,1,13,0.00
2014-6-19,71.0,58.0,46.0,44.5,36.1,15.1,71,48,12,30.09,29.96,6,1,18,0.01
2014-6-20,67.0,56.7,47.0,42.9,27.2,-3.2,66,38,6,30.21,30.06,6,2,15,0.00
2014-6-21,69.0,56.6,42.0,40.0,21.8,-36.9,71,37,1,30.20,30.01,7,2,20,0.00
2014-6-22,74.0,61.3,48.0,40.9,19.5,-33.9,67,33,1,30.16,29.95,6,2,13,0.00
2014-6-23,70.0,59.6,51.0,46.0,36.8,12.3,69,46,11,30.12,30.01,5,2,14,0.02
2014-6-24,74.0,62.2,54.0,50.7,45.3,40.2,71,56,32,30.15,30.06,4,1,10,0.01
2014-6-25,76.0,63.2,55.0,48.0,39.7,-5.2,69,48,4,30.07,29.79,4,2,11,0.90
2014-6-26,63.0,58.2,54.0,49.8,45.7,38.9,72,64,44,29.91,29.85,5,1,10,0.19
2014-6-27,69.0,59.8,54.0,52.8,44.1,36.5,73,58,32,29.96,29.79,7,1,16,0.14
2014-6-28,69.0,59.4,53.0,52.6,44.7,39.6,70,59,44,30.06,29.93,6,1,14,0.16
2014-6-29,68.0,59.5,52.0,50.5,41.9,33.6,73,54,28,30.22,30.05,5,1,10,0.05
2014-6-30,74.0,60.6,47.0,45.8,29.8,-6.6,74,40,4,30.24,29.97,7,2,14,0.00
2014-7-1,84.0,66.7,53.0,44.3,17.1,-32.7,67,30,1,30.00,29.71,5,1,16,0.00
2014-7-2,67.0,58.8,53.0,42.8,33.4,-11.5,63,42,4,30.08,29.87,7,2,16,0.00
2014-7-3,67.0,58.0,51.0,40.6,34.8,29.4,59,42,27,30.13,30.07,5,1,14,0.00
2014-7-4,69.0,56.2,44.0,37.5,32.2,19.6,70,44,17,30.13,29.97,5,2,15,0.00
2014-7-5,74.0,62.0,52.0,44.2,34.7,10.8,67,40,9,30.15,30.06,4,1,9,0.00
2014-7-6,75.0,62.8,51.0,46.4,39.0,27.0,69,46,18,30.25,30.09,5,2,15,0.00
2014-7-7,75.0,63.7,54.0,50.8,44.7,33.9,72,53,23,30.17,29.98,8,2,15,0.00
2014-7-8,74.0,62.2,53.0,47.0,40.7,32.4,71,48,24,30.09,29.95,7,3,19,0.00
2014-7-9,66.0,57.0,49.0,41.7,37.5,32.7,64,49,32,30.07,29.97,7,3,19,0.00
2014-7-10,71.0,57.9,47.0,41.0,37.0,30.5,71,48,23,30.05,29.89,5,2,18,0.00
2014-7-11,73.0,59.6,51.0,44.0,38.0,21.8,70,49,15,30.07,29.95,5,2,12,0.00
2014-7-12,71.0,59.9,52.0,45.6,41.8,37.2,73,54,29,30.15,30.00,6,2,15,0.00
2014-7-13,64.0,56.4,52.0,46.1,42.9,39.9,69,61,49,30.17,30.04,5,2,15,0.00
2014-7-14,66.0,57.1,51.0,45.2,41.7,38.6,70,57,39,30.18,30.04,5,2,15,0.00
2014-7-15,73.0,59.0,50.0,44.7,40.9,38.0,70,53,29,30.14,29.95,6,3,19,0.00
2014-7-16,67.0,56.7,49.0,41.9,39.5,36.1,70,54,35,30.07,29.95,8,3,17,0.00
2014-7-17,65.0,56.2,49.0,41.5,33.5,25.8,65,45,25,30.09,30.01,8,3,20,0.00
2014-7-18,64.0,55.3,46.0,41.0,36.2,30.3,70,50,29,30.14,30.05,7,2,16,0.00
2014-7-19,71.0,60.2,52.0,46.6,41.7,38.5,69,52,31,30.15,29.98,7,2,20,0.00
2014-7-20,64.0,56.2,48.0,43.5,35.2,28.5,67,46,28,30.05,29.98,6,2,13,0.00
2014-7-21,66.0,54.8,42.0,37.6,24.8,-7.0,69,39,5,30.13,29.98,5,1,10,0.00
2014-7-22,69.0,59.1,53.0,44.7,36.7,25.8,65,45,21,30.11,29.99,6,1,10,0.14
2014-7-23,61.0,54.9,51.0,48.5,42.5,31.4,74,64,35,30.14,30.01,5,1,12,0.68
2014-7-24,62.0,54.1,47.0,50.0,41.0,36.1,73,62,40,30.26,30.11,5,1,14,0.08
2014-7-25,64.0,53.8,43.0,41.8,35.6,30.3,74,53,29,30.22,30.07,5,1,12,0.00
2014-7-26,69.0,56.3,44.0,40.2,35.3,28.8,73,48,23,30.21,30.07,5,2,17,0.00
2014-7-27,82.0,62.1,45.0,43.0,22.4,-33.3,72,39,1,30.20,29.81,6,2,15,0.00
2014-7-28,83.0,68.5,55.0,49.8,38.7,0.3,71,40,4,30.15,30.04,6,2,15,0.00
2014-7-29,80.0,65.3,55.0,46.6,42.1,32.1,68,46,20,30.20,30.06,7,3,20,0.00
2014-7-30,81.0,66.4,56.0,48.9,41.3,26.6,70,45,14,30.17,30.04,6,2,16,0.00
2014-7-31,87.0,69.7,54.0,44.3,22.4,-26.7,65,29,1,30.16,30.00,7,3,18,0.00
2014-8-1,85.0,70.5,61.0,49.9,36.6,-26.7,58,34,3,30.09,29.95,6,2,15,0.00
2014-8-2,78.0,65.7,58.0,47.9,44.4,41.1,65,48,28,30.07,29.99,7,2,17,0.00
2014-8-3,84.0,68.1,56.0,49.4,43.9,31.4,69,46,15,30.09,29.92,6,2,15,0.00
2014-8-4,82.0,67.0,57.0,49.0,44.3,38.7,70,47,23,30.05,29.94,7,3,22,0.00
2014-8-5,75.0,64.8,57.0,47.1,44.4,40.5,64,49,31,30.14,30.04,6,2,13,0.00
2014-8-6,78.0,66.5,58.0,51.6,43.1,30.2,63,45,23,30.17,30.08,6,2,17,0.00
2014-8-7,73.0,62.6,56.0,47.1,40.3,24.0,67,47,17,30.14,30.06,6,2,16,0.00
2014-8-8,74.0,62.8,52.0,45.6,40.0,34.1,69,46,24,30.17,30.09,6,1,15,0.00
2014-8-9,80.0,64.4,50.0,44.7,29.3,-30.3,69,39,1,30.19,30.05,7,2,15,0.00
2014-8-10,88.0,70.8,53.0,47.3,14.6,-31.5,68,30,1,30.11,29.95,7,2,15,0.00
2014-8-11,95.0,75.0,63.0,53.6,30.2,-24.9,64,31,1,30.02,29.85,6,1,15,0.00
2014-8-12,75.0,65.5,61.0,57.2,50.5,43.7,70,59,41,29.98,29.88,5,1,12,0.18
2014-8-13,72.0,65.2,61.0,58.7,53.0,48.5,74,65,50,30.04,29.95,5,1,11,0.14
2014-8-14,81.0,68.0,60.0,54.6,48.9,32.7,72,54,18,30.04,29.98,4,1,9,0.00
2014-8-15,78.0,70.4,63.0,57.4,51.4,47.5,70,52,39,30.07,30.03,4,1,10,0.00
2014-8-16,80.0,69.3,59.0,52.2,47.9,38.9,70,49,23,30.11,30.03,4,1,10,0.00
2014-8-17,82.0,69.1,61.0,55.5,49.3,40.6,73,52,28,30.11,30.00,5,2,17,0.00
2014-8-18,86.0,68.9,57.0,52.2,46.6,36.8,73,49,18,30.04,29.85,6,2,17,0.00
2014-8-19,70.0,64.2,56.0,51.7,46.7,39.6,66,53,42,29.92,29.86,9,3,20,0.00
2014-8-20,69.0,59.4,51.0,46.0,37.3,22.1,71,47,18,30.04,29.91,6,1,17,0.00
2014-8-21,72.0,59.4,48.0,44.8,25.8,-36.3,69,42,1,30.07,29.97,5,1,12,0.00
2014-8-22,75.0,61.8,52.0,45.4,40.5,23.4,68,48,16,30.10,29.99,8,2,18,0.00
2014-8-23,81.0,63.8,51.0,47.4,32.7,-30.3,73,44,1,30.14,30.00,6,2,14,0.00
2014-8-24,72.0,61.7,52.0,44.6,42.4,39.5,67,51,32,30.03,29.93,5,2,14,0.00
2014-8-25,82.0,71.8,55.0,49.0,17.1,-30.3,73,26,1,30.03,29.94,6,2,13,0.00
2014-8-26,84.0,67.9,56.0,50.0,33.9,-27.9,72,40,1,30.06,29.96,5,2,12,0.00
2014-8-27,77.0,64.3,58.0,50.7,45.9,39.5,70,53,29,30.08,30.02,6,2,17,0.00
2014-8-28,76.0,64.5,56.0,50.2,45.6,40.6,69,52,28,30.13,30.03,5,2,12,0.00
2014-8-29,72.0,63.6,58.0,49.3,43.6,34.5,65,50,29,30.04,29.97,5,2,12,0.00
2014-8-30,69.0,61.3,57.0,54.9,46.4,35.9,73,59,33,30.04,29.93,5,1,14,0.18
2014-8-31,71.0,60.3,51.0,49.2,39.0,17.8,72,50,15,30.09,30.03,5,1,13,0.00
2014-9-1,74.0,61.5,50.0,48.3,39.3,-35.1,71,49,8,30.10,30.01,5,1,14,0.00
2014-9-2,70.0,60.9,53.0,48.3,42.5,32.6,70,53,25,30.01,29.94,6,2,15,0.00
2014-9-3,72.0,60.4,50.0,44.7,36.5,17.7,68,45,13,30.11,30.00,4,1,11,0.00
2014-9-4,79.0,62.3,48.0,47.5,21.4,-33.9,73,37,1,30.11,30.00,7,2,15,0.00
2014-9-5,86.0,68.4,54.0,47.0,13.2,-32.7,66,28,1,30.10,29.98,7,2,16,0.00
2014-9-6,98.0,71.2,53.0,50.8,23.5,-29.7,64,33,1,30.02,29.85,5,1,15,0.00
2014-9-7,82.0,70.5,65.0,54.1,50.4,37.0,64,51,20,29.94,29.87,5,2,12,0.00
2014-9-8,77.0,69.4,64.0,55.9,51.7,48.4,63,54,38,30.00,29.91,6,2,19,0.01
2014-9-9,78.0,67.3,61.0,51.2,43.9,30.8,67,46,18,30.16,30.00,5,1,13,0.00
2014-9-10,77.0,66.8,59.0,51.5,39.9,-38.8,68,43,1,30.19,30.09,7,2,17,0.00
2014-9-11,81.0,66.3,51.0,36.5,-1.9,-39.4,52,17,1,30.22,30.06,5,1,15,0.00
2014-9-12,87.0,68.2,52.0,41.5,-0.4,-36.3,57,19,1,30.06,29.92,6,1,12,0.00
2014-9-13,91.0,70.3,54.0,42.4,3.0,-35.1,56,19,1,29.97,29.84,4,1,12,0.00
2014-9-14,87.0,68.5,53.0,43.8,12.0,-33.9,58,25,1,29.92,29.84,3,0,6,0.00
2014-9-15,91.0,66.6,51.0,46.6,23.0,-29.7,62,34,2,29.92,29.80,5,1,14,0.00
2014-9-16,77.0,66.8,58.0,50.7,44.5,36.6,65,47,24,29.97,29.89,5,1,9,0.00
2014-9-17,80.0,68.4,59.0,54.1,48.7,40.6,68,52,25,29.89,29.75,6,1,22,0.02
2014-9-18,77.0,68.1,62.0,58.1,51.7,44.0,72,57,33,30.03,29.79,4,1,10,0.02
2014-9-19,80.0,68.4,60.0,56.9,48.3,34.1,71,52,19,30.11,30.02,5,1,14,0.00
2014-9-20,83.0,68.5,58.0,54.2,43.4,22.3,74,47,11,30.07,29.86,7,1,15,0.01
2014-9-21,76.0,65.4,59.0,53.9,49.0,44.9,73,57,33,29.99,29.87,6,2,14,0.00
2014-9-22,77.0,67.8,63.0,55.3,48.1,36.8,70,52,25,30.02,29.92,4,1,8,0.07
2014-9-23,72.0,67.2,62.0,61.1,57.4,52.9,74,71,63,29.94,29.73,2,0,8,0.05
2014-9-24,77.0,70.3,66.0,64.6,59.0,55.0,74,68,53,29.90,29.77,3,1,14,1.02
2014-9-25,79.0,67.8,63.0,60.4,56.2,51.6,76,67,44,29.93,29.86,3,0,9,0.04
2014-9-26,76.0,62.8,57.0,65.5,53.7,48.8,78,72,66,30.08,29.93,3,0,12,0.74
2014-9-27,69.0,60.7,53.0,55.4,46.3,35.9,77,61,34,30.11,30.03,6,1,17,0.00
2014-9-28,71.0,57.9,46.0,51.5,45.0,37.7,77,63,40,30.05,29.92,5,1,10,0.00
2014-9-29,68.0,61.4,56.0,55.9,50.6,46.4,74,68,57,30.04,29.93,3,0,9,0.13
2014-9-30,73.0,62.0,55.0,53.6,48.9,45.7,77,64,39,30.17,30.04,4,1,10,0.04
2014-10-1,73.0,60.9,52.0,54.2,45.6,38.6,77,59,31,30.22,30.15,4,0,9,0.00
2014-10-2,71.0,61.2,52.0,50.8,41.5,24.0,75,52,17,30.25,30.19,4,0,8,0.00
2014-10-3,79.0,62.3,49.0,49.2,41.9,17.0,73,52,10,30.23,30.11,2,0,6,0.00
2014-10-4,84.0,66.4,54.0,53.4,46.3,32.9,74,53,17,30.18,30.08,3,0,6,0.00
2014-10-5,83.0,69.2,59.0,56.3,49.5,38.3,73,53,21,30.12,30.02,5,1,14,0.00
2014-10-6,85.0,70.8,59.0,58.8,51.1,41.9,72,53,22,30.05,29.93,5,1,11,0.00
2014-10-7,82.0,69.5,61.0,61.0,54.2,48.0,73,59,38,29.98,29.89,4,1,9,0.00
2014-10-8,65.0,56.5,41.0,50.5,44.0,33.7,79,64,44,30.02,29.94,5,1,11,0.03
2014-10-9,65.0,55.2,47.0,47.9,42.9,37.9,77,64,38,30.05,29.97,5,1,9,0.00
2014-10-10,83.0,62.2,55.0,65.2,49.8,46.5,77,65,45,30.10,30.03,4,0,10,0.00
2014-10-11,80.0,62.1,55.0,66.7,51.3,46.0,77,68,45,30.22,30.04,5,1,16,0.27
2014-10-12,83.0,61.3,53.0,64.7,50.0,44.4,77,67,51,30.24,30.03,5,0,10,0.01
2014-10-13,78.0,60.6,48.0,53.5,44.5,38.0,78,58,28,30.03,29.72,8,1,23,0.21
2014-10-14,65.0,59.5,56.0,53.6,50.3,47.7,76,72,63,29.86,29.60,4,0,11,0.39
2014-10-15,65.0,57.4,54.0,53.8,48.5,44.8,77,72,58,30.01,29.58,4,1,12,0.36
2014-10-16,68.0,58.3,52.0,49.8,44.8,33.7,77,63,30,30.01,29.82,4,0,12,0.00
2014-10-17,60.0,56.6,53.0,50.2,48.2,44.4,78,74,64,29.90,29.76,4,0,10,0.42
2014-10-18,69.0,59.9,53.0,56.6,50.9,44.6,78,72,60,29.97,29.82,3,0,11,0.01
2014-10-19,74.0,60.8,52.0,55.3,49.1,43.9,80,67,41,29.83,29.72,4,1,11,0.00
2014-10-20,66.0,58.5,53.0,53.5,49.6,43.2,77,72,55,29.85,29.73,4,0,11,0.17
2014-10-21,62.0,55.6,51.0,50.8,45.4,39.6,78,69,55,29.97,29.80,5,1,15,0.08
2014-10-22,58.0,55.9,52.0,51.2,47.8,41.4,78,74,61,29.80,29.67,6,2,18,1.03
2014-10-23,60.0,55.1,52.0,51.1,46.5,41.5,80,73,54,30.00,29.76,4,0,9,0.49
2014-10-24,57.0,52.5,48.0,49.5,44.9,41.1,79,75,67,30.02,29.72,3,0,6,0.24
2014-10-25,61.0,53.6,46.0,51.0,45.5,38.5,80,74,65,29.88,29.39,7,2,22,0.41
2014-10-26,61.0,52.2,46.0,52.7,44.3,38.9,81,75,60,30.14,29.88,4,0,8,0.72
2014-10-27,57.0,51.0,44.0,48.3,42.0,37.3,80,72,53,30.15,29.96,3,0,9,0.02
2014-10-28,55.0,51.5,47.0,47.0,43.8,39.8,78,75,71,29.99,29.90,6,1,16,0.26
2014-10-29,63.0,54.4,48.0,50.8,45.4,41.1,81,72,55,30.13,29.99,3,0,9,0.07
2014-10-30,59.0,53.5,50.0,50.7,46.1,42.0,80,76,69,30.01,29.79,4,0,10,0.46
2014-10-31,56.0,49.2,45.0,47.1,41.8,36.9,80,76,65,29.89,29.74,3,0,9,0.70
2014-11-1,53.0,45.6,41.0,43.5,37.8,34.0,80,74,58,30.07,29.86,3,0,6,0.01
2014-11-2,54.0,49.2,45.0,45.2,42.1,38.6,80,77,71,30.16,30.06,4,1,14,0.35
2014-11-3,55.0,52.0,49.0,47.0,45.0,41.8,79,77,74,30.16,30.07,3,1,14,1.04
2014-11-4,56.0,51.4,49.0,46.7,44.2,39.9,80,76,66,30.26,30.03,5,1,17,0.21
2014-11-5,59.0,54.9,50.0,51.2,47.8,43.1,80,77,73,30.26,29.97,3,0,6,0.02
2014-11-6,64.0,56.1,48.0,53.4,48.4,40.8,80,76,64,30.30,29.89,6,1,15,0.33
2014-11-7,62.0,50.0,42.0,51.3,41.5,34.7,80,73,49,30.42,30.29,5,0,10,0.00
2014-11-8,54.0,44.0,39.0,40.2,36.0,31.8,80,73,56,30.31,30.09,3,0,7,0.00
2014-11-9,55.0,48.3,42.0,47.2,40.8,35.0,81,75,64,30.10,29.94,4,0,9,0.31
2014-11-10,52.0,45.8,39.0,41.8,36.2,31.2,79,69,52,30.15,30.03,7,1,12,0.01
2014-11-11,49.0,40.2,30.0,34.7,17.2,-20.1,77,46,7,30.22,30.09,9,2,28,0.00
2014-11-12,45.0,34.4,25.0,15.3,-0.2,-32.3,61,30,3,30.22,30.05,5,1,22,0.00
2014-11-13,43.0,38.1,30.0,26.0,19.1,3.8,58,47,20,30.05,29.94,5,0,15,0.00
2014-11-14,46.0,37.1,28.0,25.7,16.7,-3.0,65,46,13,30.26,30.00,2,0,4,0.00
2014-11-15,46.0,32.3,23.0,24.2,6.5,-50.5,70,43,1,30.47,30.26,4,0,8,0.01
2014-11-16,47.0,31.8,22.0,19.8,8.4,-37.5,65,44,2,30.45,30.31,2,0,4,0.00
2014-11-17,49.0,32.2,23.0,28.4,15.9,-30.4,66,52,6,30.38,30.07,3,0,6,0.00
2014-11-18,60.0,41.4,30.0,27.5,19.4,10.2,64,44,22,30.07,29.95,4,1,9,0.00
2014-11-19,69.0,50.1,39.0,36.2,21.2,3.2,61,34,9,29.95,29.67,3,0,10,0.02
2014-11-20,59.0,52.3,44.0,46.8,40.4,30.7,69,64,57,29.79,29.64,5,1,9,0.05
2014-11-21,56.0,52.7,51.0,49.2,43.3,38.4,78,70,62,29.65,29.13,6,1,15,0.65
2014-11-22,59.0,48.0,41.0,48.7,40.0,32.0,80,74,61,29.83,29.32,4,0,8,0.33
2014-11-23,55.0,49.0,44.0,47.2,41.8,36.6,78,76,72,29.96,29.79,6,0,12,0.45
2014-11-24,58.0,52.0,48.0,48.8,43.9,40.1,78,74,68,29.96,29.81,3,0,10,0.24
2014-11-25,67.0,58.8,53.0,58.2,51.4,45.6,81,76,69,29.89,29.81,5,0,9,0.86
2014-11-26,64.0,59.8,58.0,52.7,49.2,41.9,77,68,53,29.86,29.55,5,1,13,0.00
2014-11-27,64.0,58.5,56.0,53.2,47.3,39.7,75,67,47,29.56,29.41,7,2,16,0.10
2014-11-28,61.0,53.8,45.0,53.4,45.6,35.4,77,74,68,29.41,29.12,5,1,13,0.54
2014-11-29,47.0,38.3,28.0,37.5,27.3,13.6,76,65,52,29.75,29.26,7,1,18,0.36
2014-11-30,41.0,31.7,27.0,24.2,19.6,15.7,72,61,41,29.77,29.66,5,0,10,0.00
2014-12-1,42.0,32.8,26.0,26.3,21.5,16.9,75,64,44,29.78,29.70,4,0,7,0.00
2014-12-2,43.0,34.3,27.0,28.4,23.8,17.8,75,66,48,29.78,29.51,6,1,12,0.00
2014-12-3,50.0,41.1,33.0,33.1,28.4,22.9,73,61,43,29.51,29.37,2,0,4,0.00
2014-12-4,50.0,45.3,42.0,40.6,36.1,30.9,74,70,62,29.57,29.43,6,1,9,0.07
2014-12-5,53.0,47.7,45.0,42.0,38.5,35.4,77,70,62,29.59,29.41,5,1,9,0.10
2014-12-6,60.0,51.4,45.0,52.1,43.5,37.2,78,74,68,29.81,29.49,5,1,15,0.19
2014-12-7,53.0,48.9,46.0,43.9,40.9,37.5,78,74,69,29.81,29.61,3,0,9,0.01
2014-12-8,55.0,48.8,41.0,42.5,38.3,33.0,77,67,58,29.95,29.53,6,1,11,0.01
2014-12-9,60.0,55.2,51.0,53.5,47.7,39.7,80,76,63,29.97,29.76,4,1,13,0.48
2014-12-10,61.0,57.7,51.0,53.1,48.5,43.7,78,72,58,29.77,29.39,8,2,19,0.53
2014-12-11,61.0,53.7,46.0,53.7,44.7,38.9,81,72,53,29.70,29.23,10,2,25,0.54
2014-12-12,57.0,49.8,43.0,48.4,42.0,34.9,79,75,66,30.09,29.70,2,0,4,0.01
2014-12-13,55.0,49.9,46.0,45.9,41.4,37.8,79,73,65,30.22,30.09,3,0,8,0.00
2014-12-14,55.0,46.7,39.0,41.7,32.2,22.1,77,59,32,30.19,29.99,6,1,16,0.00
2014-12-15,58.0,49.4,40.0,36.2,30.9,26.6,66,49,34,30.00,29.86,4,1,14,0.00
2014-12-16,58.0,49.7,44.0,40.0,35.3,30.4,74,58,42,29.90,29.85,4,0,7,0.01
2014-12-17,54.0,48.9,45.0,42.4,39.8,36.5,76,71,60,30.00,29.84,3,0,7,0.14
2014-12-18,54.0,51.6,49.0,45.6,43.6,41.1,77,74,71,30.00,29.80,6,1,12,0.37
2014-12-19,63.0,56.3,51.0,50.0,46.9,43.4,77,71,59,30.02,29.86,4,1,16,0.13
2014-12-20,62.0,58.1,55.0,56.1,50.4,45.8,81,76,71,29.90,29.65,6,2,17,1.93
2014-12-21,67.0,61.0,58.0,57.1,52.0,49.4,78,72,62,30.18,29.75,5,1,20,0.26
2014-12-22,61.0,54.7,49.0,51.2,46.8,41.1,78,75,67,30.37,30.18,2,0,5,0.01
2014-12-23,59.0,54.9,50.0,51.1,47.3,41.7,78,75,71,30.31,30.07,6,1,14,0.29
2014-12-24,57.0,51.8,47.0,45.9,42.9,38.8,78,72,62,30.09,29.95,5,1,14,0.46
2014-12-25,57.0,50.3,43.0,46.7,41.9,34.6,79,73,62,30.28,30.09,3,0,7,0.02
2014-12-26,57.0,53.4,50.0,47.3,44.6,41.7,76,72,65,30.35,30.26,5,0,8,0.03
2014-12-27,57.0,53.2,47.0,49.5,45.2,38.4,79,74,68,30.31,30.14,4,0,13,0.71
2014-12-28,55.0,48.3,43.0,46.5,40.5,35.6,79,74,62,30.24,30.15,5,0,16,0.18
2014-12-29,53.0,47.5,43.0,39.5,31.7,14.6,78,57,24,30.61,30.15,10,2,21,0.02
2014-12-30,74.0,51.1,30.0,44.4,32.1,-2.4,71,52,6,30.74,28.16,4,0,8,0.00
2014-12-31,45.0,36.2,30.0,29.8,22.9,14.6,74,59,38,30.88,28.16,5,0,8,0.00
2015-1-1,42.0,34.6,30.0,31.6,23.2,19.3,73,63,46,30.59,30.42,3,0,6,0.20
2015-1-2,42.0,37.0,31.0,30.5,23.6,19.0,75,59,44,30.44,30.17,5,1,12,0.01